createdAt,value
2022-08-10T00:00:39.243Z,17.63
2022-08-10T00:03:07.921Z,15.57
2022-08-10T00:05:43.679Z,17.42
2022-08-10T00:08:22.714Z,15.63
2022-08-10T00:13:18.788Z,12.15
2022-08-10T00:15:54.252Z,11.93
2022-08-10T00:18:34.382Z,11.80
2022-08-10T00:23:30.586Z,9.88
2022-08-10T00:25:57.889Z,9.48
2022-08-10T00:28:26.047Z,10.82
2022-08-10T00:30:53.507Z,9.85
2022-08-10T00:33:21.110Z,11.07
2022-08-10T00:35:48.937Z,8.85
2022-08-10T00:38:16.304Z,8.90
2022-08-10T00:40:43.879Z,7.78
2022-08-10T00:43:11.226Z,8.00
2022-08-10T00:45:39.370Z,7.60
2022-08-10T00:48:06.798Z,7.82
2022-08-10T00:50:34.558Z,8.57
2022-08-10T00:53:02.436Z,7.95
2022-08-10T00:55:29.976Z,9.63
2022-08-10T00:57:57.531Z,8.85
2022-08-10T01:00:25.475Z,9.18
2022-08-10T01:02:53.293Z,8.98
2022-08-10T01:05:21.133Z,8.88
2022-08-10T01:08:06.927Z,9.48
2022-08-10T01:10:43.105Z,8.98
2022-08-10T01:13:26.925Z,10.80
2022-08-10T01:16:06.397Z,10.48
2022-08-10T01:18:40.088Z,8.27
2022-08-10T01:21:10.526Z,8.80
2022-08-10T01:23:37.873Z,8.02
2022-08-10T01:26:12.253Z,8.75
2022-08-10T01:29:14.264Z,7.72
2022-08-10T01:31:43.282Z,7.65
2022-08-10T01:34:40.062Z,7.50
2022-08-10T01:37:10.844Z,8.48
2022-08-10T01:39:40.271Z,8.38
2022-08-10T01:42:08.076Z,7.47
2022-08-10T01:44:45.621Z,7.47
2022-08-10T01:47:34.763Z,7.38
2022-08-10T01:52:32.049Z,7.20
2022-08-10T01:54:59.939Z,7.88
2022-08-10T01:57:29.020Z,6.65
2022-08-10T02:00:02.815Z,7.00
2022-08-10T02:02:31.274Z,6.82
2022-08-10T02:04:59.176Z,6.60
2022-08-10T02:07:27.921Z,7.60
2022-08-10T02:09:56.775Z,7.13
2022-08-10T02:12:25.523Z,7.13
2022-08-10T02:15:16.241Z,7.15
2022-08-10T02:18:00.049Z,6.40
2022-08-10T02:20:34.882Z,6.07
2022-08-10T02:23:03.957Z,6.63
2022-08-10T02:25:41.123Z,6.63
2022-08-10T02:28:11.799Z,6.95
2022-08-10T02:30:56.051Z,6.70
2022-08-10T02:33:26.664Z,6.95
2022-08-10T02:35:55.949Z,7.25
2022-08-10T02:38:59.036Z,6.35
2022-08-10T02:45:13.865Z,6.55
2022-08-10T02:45:19.469Z,6.40
2022-08-10T02:47:50.860Z,6.88
2022-08-10T02:50:36.170Z,6.55
2022-08-10T02:53:03.469Z,5.90
2022-08-10T02:55:36.866Z,5.65
2022-08-10T02:58:15.246Z,6.30
2022-08-10T03:03:16.491Z,5.88
2022-08-10T03:05:44.098Z,6.10
2022-08-10T03:08:13.007Z,6.00
2022-08-10T03:10:41.906Z,5.63
2022-08-10T03:13:10.265Z,5.88
2022-08-10T03:15:38.481Z,6.38
2022-08-10T03:18:06.957Z,6.53
2022-08-10T03:20:39.687Z,5.53
2022-08-10T03:23:16.026Z,6.18
2022-08-10T03:25:53.536Z,5.88
2022-08-10T03:28:26.907Z,6.35
2022-08-10T03:30:54.693Z,5.55
2022-08-10T03:33:22.857Z,5.88
2022-08-10T03:36:42.777Z,6.22
2022-08-10T03:38:38.077Z,5.57
2022-08-10T03:41:06.759Z,6.07
2022-08-10T03:43:34.385Z,6.30
2022-08-10T03:46:04.015Z,6.00
2022-08-10T03:48:45.203Z,5.93
2022-08-10T03:51:16.693Z,6.57
2022-08-10T03:54:03.088Z,6.50
2022-08-10T03:56:32.997Z,6.43
2022-08-10T03:59:01.464Z,6.47
2022-08-10T04:02:45.761Z,6.38
2022-08-10T04:04:23.243Z,6.55
2022-08-10T04:06:54.787Z,6.13
2022-08-10T04:09:22.936Z,6.05
2022-08-10T04:11:50.284Z,5.72
2022-08-10T04:14:38.811Z,6.47
2022-08-10T04:17:05.022Z,5.57
2022-08-10T04:19:38.660Z,7.00
2022-08-10T04:22:09.732Z,7.25
2022-08-10T04:24:38.867Z,7.15
2022-08-10T04:27:06.335Z,10.02
2022-08-10T04:29:34.184Z,9.07
2022-08-10T04:32:03.683Z,10.43
2022-08-10T04:34:32.497Z,11.50
2022-08-10T04:37:04.326Z,12.40
2022-08-10T04:39:34.308Z,9.88
2022-08-10T04:42:01.726Z,8.35
2022-08-10T04:44:29.049Z,7.18
2022-08-10T04:46:59.187Z,7.90
2022-08-10T04:49:53.961Z,7.50
2022-08-10T04:52:15.601Z,7.88
2022-08-10T04:54:42.918Z,8.18
2022-08-10T04:57:10.601Z,7.60
2022-08-10T04:59:37.884Z,8.98
2022-08-10T05:02:27.951Z,10.40
2022-08-10T05:04:52.574Z,12.32
2022-08-10T05:07:19.938Z,12.50
2022-08-10T05:10:02.275Z,12.80
2022-08-10T05:12:37.442Z,11.50
2022-08-10T05:15:06.690Z,10.93
2022-08-10T05:17:34.909Z,10.10
2022-08-10T05:20:06.373Z,15.23
2022-08-10T05:22:38.552Z,17.48
2022-08-10T05:25:07.135Z,19.20
2022-08-10T05:27:35.047Z,15.52
2022-08-10T05:30:03.677Z,10.15
2022-08-10T05:32:32.292Z,8.95
2022-08-10T05:34:59.757Z,7.88
2022-08-10T05:38:12.089Z,6.28
2022-08-10T05:40:14.607Z,4.53
2022-08-10T05:42:42.461Z,4.18
2022-08-10T05:45:20.386Z,4.10
2022-08-10T05:48:57.047Z,3.33
2022-08-10T05:50:35.381Z,3.08
2022-08-10T05:53:23.155Z,2.50
2022-08-10T05:55:50.231Z,3.03
2022-08-10T05:58:17.828Z,2.70
2022-08-10T06:00:50.264Z,2.60
2022-08-10T06:03:23.924Z,3.00
2022-08-10T06:05:52.928Z,3.55
2022-08-10T06:08:21.706Z,2.60
2022-08-10T06:12:23.921Z,3.33
2022-08-10T06:13:59.470Z,1.92
2022-08-10T06:16:27.693Z,1.40
2022-08-10T06:18:55.955Z,1.70
2022-08-10T06:21:23.926Z,2.30
2022-08-10T06:23:52.786Z,1.77
2022-08-10T06:26:21.788Z,1.83
2022-08-10T06:28:56.033Z,1.73
2022-08-10T06:31:46.715Z,1.80
2022-08-10T06:34:15.044Z,1.88
2022-08-10T06:36:43.201Z,1.50
2022-08-10T06:39:31.839Z,1.90
2022-08-10T06:42:15.203Z,2.22
2022-08-10T06:44:58.711Z,4.63
2022-08-10T06:47:35.329Z,4.13
2022-08-10T06:50:08.624Z,4.20
2022-08-10T06:52:37.225Z,4.18
2022-08-10T06:55:08.222Z,2.70
2022-08-10T06:57:38.321Z,2.35
2022-08-10T07:00:06.651Z,2.10
2022-08-10T07:02:55.699Z,1.70
2022-08-10T07:05:25.246Z,1.50
2022-08-10T07:07:53.724Z,1.42
2022-08-10T07:10:22.569Z,1.30
2022-08-10T07:12:51.973Z,1.65
2022-08-10T07:15:20.367Z,1.40
2022-08-10T07:17:48.551Z,1.10
2022-08-10T07:20:18.656Z,1.05
2022-08-10T07:23:54.988Z,1.00
2022-08-10T07:25:38.344Z,0.90
2022-08-10T07:28:06.057Z,0.80
2022-08-10T07:30:36.931Z,0.85
2022-08-10T07:35:41.807Z,0.88
2022-08-10T07:38:12.363Z,0.90
2022-08-10T07:40:40.615Z,1.00
2022-08-10T07:43:08.787Z,0.90
2022-08-10T07:45:36.374Z,1.00
2022-08-10T07:48:08.075Z,1.30
2022-08-10T07:50:37.292Z,1.00
2022-08-10T07:53:04.935Z,1.20
2022-08-10T07:56:04.550Z,0.88
2022-08-10T07:58:22.963Z,1.10
2022-08-10T08:00:53.009Z,0.82
2022-08-10T08:03:25.391Z,1.30
2022-08-10T08:06:02.547Z,1.00
2022-08-10T08:08:36.148Z,0.83
2022-08-10T08:11:04.197Z,1.02
2022-08-10T08:13:31.581Z,1.10
2022-08-10T08:16:20.483Z,0.80
2022-08-10T08:18:54.301Z,0.77
2022-08-10T08:24:05.426Z,0.98
2022-08-10T08:24:32.904Z,0.90
2022-08-10T08:27:05.185Z,0.63
2022-08-10T08:29:34.631Z,0.77
2022-08-10T08:32:03.716Z,0.80
2022-08-10T08:34:35.276Z,1.05
2022-08-10T08:37:03.456Z,0.90
2022-08-10T08:39:37.115Z,0.63
2022-08-10T08:42:16.202Z,0.60
2022-08-10T08:44:51.193Z,1.02
2022-08-10T08:48:05.755Z,0.85
2022-08-10T08:50:10.108Z,0.93
2022-08-10T08:52:49.811Z,0.70
2022-08-10T08:56:03.117Z,0.90
2022-08-10T08:58:35.845Z,0.90
2022-08-10T09:01:21.789Z,1.00
2022-08-10T09:04:21.056Z,0.50
2022-08-10T09:07:59.672Z,0.93
2022-08-10T09:10:15.664Z,0.88
2022-08-10T09:12:52.949Z,1.10
2022-08-10T09:15:42.103Z,0.90
2022-08-10T09:18:13.718Z,0.80
2022-08-10T09:21:00.219Z,0.77
2022-08-10T09:24:01.457Z,0.93
2022-08-10T09:26:27.438Z,0.50
2022-08-10T09:29:11.835Z,0.60
2022-08-10T09:33:06.263Z,0.57
2022-08-10T09:36:29.510Z,0.50
2022-08-10T09:38:14.128Z,0.65
2022-08-10T09:40:58.845Z,0.68
2022-08-10T09:43:29.691Z,0.70
2022-08-10T09:46:03.596Z,0.55
2022-08-10T09:48:40.420Z,0.70
2022-08-10T09:51:44.135Z,0.55
2022-08-10T09:54:09.445Z,0.68
2022-08-10T09:56:49.281Z,0.60
2022-08-10T09:59:27.018Z,0.80
2022-08-10T10:02:23.224Z,0.60
2022-08-10T10:04:53.687Z,0.67
2022-08-10T10:07:25.656Z,0.73
2022-08-10T10:09:59.031Z,0.80
2022-08-10T10:12:32.067Z,0.60
2022-08-10T10:15:25.116Z,0.80
2022-08-10T10:18:11.734Z,0.57
2022-08-10T10:20:45.727Z,0.63
2022-08-10T10:23:31.160Z,0.75
2022-08-10T10:26:08.467Z,0.60
2022-08-10T10:29:24.791Z,0.70
2022-08-10T10:31:50.690Z,0.68
2022-08-10T10:34:36.935Z,0.68
2022-08-10T10:37:06.800Z,0.70
2022-08-10T10:39:35.402Z,0.73
2022-08-10T10:42:44.147Z,0.80
2022-08-10T10:45:26.594Z,0.77
2022-08-10T10:47:59.897Z,0.70
2022-08-10T10:50:30.294Z,0.70
2022-08-10T10:53:00.636Z,0.80
2022-08-10T10:56:13.656Z,1.10
2022-08-10T10:58:28.798Z,0.80
2022-08-10T11:00:56.120Z,1.00
2022-08-10T11:03:29.643Z,1.00
2022-08-10T11:06:09.698Z,0.70
2022-08-10T11:08:43.538Z,0.85
2022-08-10T11:12:01.646Z,0.80
2022-08-10T11:14:25.930Z,0.80
2022-08-10T11:17:01.398Z,0.95
2022-08-10T11:20:01.880Z,0.90
2022-08-10T11:22:37.947Z,0.85
2022-08-10T11:25:11.482Z,1.05
2022-08-10T11:27:53.266Z,1.13
2022-08-10T11:30:21.859Z,0.90
2022-08-10T11:33:12.245Z,1.13
2022-08-10T11:35:44.949Z,1.50
2022-08-10T11:38:42.741Z,1.25
2022-08-10T11:42:09.451Z,1.27
2022-08-10T11:44:12.703Z,1.02
2022-08-10T11:46:43.486Z,1.20
2022-08-10T11:49:13.838Z,1.25
2022-08-10T11:51:49.677Z,1.10
2022-08-10T11:54:19.890Z,1.10
2022-08-10T11:56:51.399Z,1.02
2022-08-10T11:59:38.713Z,1.00
2022-08-10T12:02:06.826Z,0.90
2022-08-10T12:04:35.343Z,0.98
2022-08-10T12:10:02.024Z,0.80
2022-08-10T12:10:11.244Z,0.75
2022-08-10T12:12:45.580Z,0.98
2022-08-10T12:15:26.721Z,0.80
2022-08-10T12:17:56.191Z,0.90
2022-08-10T12:20:23.447Z,0.70
2022-08-10T12:22:56.877Z,0.90
2022-08-10T12:25:57.423Z,0.75
2022-08-10T12:28:50.616Z,1.10
2022-08-10T12:31:19.608Z,0.80
2022-08-10T12:34:01.817Z,0.90
2022-08-10T12:36:34.529Z,1.00
2022-08-10T12:39:04.896Z,1.10
2022-08-10T12:41:44.621Z,1.05
2022-08-10T12:44:15.701Z,1.00
2022-08-10T12:46:49.025Z,0.68
2022-08-10T12:49:19.327Z,1.25
2022-08-10T12:51:57.154Z,1.08
2022-08-10T12:54:32.505Z,0.93
2022-08-10T12:57:09.721Z,1.10
2022-08-10T12:59:43.423Z,1.00
2022-08-10T13:02:13.211Z,0.90
2022-08-10T13:04:42.445Z,0.95
2022-08-10T13:07:10.991Z,1.35
2022-08-10T13:10:24.461Z,1.10
2022-08-10T13:12:55.135Z,0.88
2022-08-10T13:15:50.114Z,0.90
2022-08-10T13:18:18.106Z,0.90
2022-08-10T13:20:50.681Z,0.90
2022-08-10T13:23:22.947Z,1.20
2022-08-10T13:25:51.446Z,1.05
2022-08-10T13:28:35.894Z,1.00
2022-08-10T13:31:11.408Z,1.00
2022-08-10T13:34:41.361Z,0.90
2022-08-10T13:36:36.323Z,0.90
2022-08-10T13:39:03.940Z,0.90
2022-08-10T13:41:38.596Z,0.75
2022-08-10T13:44:07.589Z,0.90
2022-08-10T13:46:40.294Z,1.00
2022-08-10T13:49:08.281Z,1.25
2022-08-10T13:51:53.931Z,1.15
2022-08-10T13:54:26.177Z,0.90
2022-08-10T13:56:54.739Z,0.93
2022-08-10T13:59:26.044Z,0.90
2022-08-10T14:04:45.750Z,0.88
2022-08-10T14:07:14.074Z,0.80
2022-08-10T14:09:43.666Z,0.90
2022-08-10T14:12:12.502Z,0.80
2022-08-10T14:14:40.898Z,0.90
2022-08-10T14:17:09.813Z,1.33
2022-08-10T14:19:43.250Z,0.75
2022-08-10T14:22:11.460Z,0.80
2022-08-10T14:24:38.818Z,0.80
2022-08-10T14:27:10.972Z,0.63
2022-08-10T14:29:48.390Z,0.82
2022-08-10T14:32:20.022Z,0.60
2022-08-10T14:36:18.939Z,0.75
2022-08-10T14:37:39.887Z,0.85
2022-08-10T14:40:10.969Z,0.90
2022-08-10T14:42:43.061Z,0.70
2022-08-10T14:45:21.625Z,1.15
2022-08-10T14:47:53.393Z,0.98
2022-08-10T14:50:31.509Z,0.80
2022-08-10T14:53:01.056Z,0.77
2022-08-10T14:55:28.643Z,0.88
2022-08-10T14:58:16.907Z,0.90
2022-08-10T15:00:43.665Z,0.73
2022-08-10T15:03:58.861Z,1.00
2022-08-10T15:06:01.371Z,0.90
2022-08-10T15:08:36.946Z,1.58
2022-08-10T15:11:05.243Z,0.90
2022-08-10T15:13:36.103Z,0.80
2022-08-10T15:16:13.555Z,1.08
2022-08-10T15:18:58.580Z,0.85
2022-08-10T15:21:35.732Z,1.10
2022-08-10T15:24:14.513Z,1.00
2022-08-10T15:26:51.451Z,0.98
2022-08-10T15:29:26.314Z,0.90
2022-08-10T15:32:12.573Z,0.73
2022-08-10T15:34:58.760Z,0.65
2022-08-10T15:37:36.272Z,0.70
2022-08-10T15:40:32.481Z,0.60
2022-08-10T15:43:05.516Z,0.90
2022-08-10T15:45:55.515Z,1.00
2022-08-10T15:48:23.783Z,1.08
2022-08-10T15:50:57.364Z,0.82
2022-08-10T15:53:30.639Z,0.80
2022-08-10T15:56:00.402Z,1.05
2022-08-10T15:58:39.688Z,0.80
2022-08-10T16:02:14.287Z,0.77
2022-08-10T16:04:12.923Z,0.90
2022-08-10T16:06:43.142Z,2.00
2022-08-10T16:10:22.802Z,2.13
2022-08-10T16:12:13.491Z,2.10
2022-08-10T16:14:42.329Z,1.50
2022-08-10T16:17:12.429Z,1.33
2022-08-10T16:19:47.786Z,1.08
2022-08-10T16:22:34.530Z,1.00
2022-08-10T16:25:03.538Z,1.52
2022-08-10T16:27:32.889Z,1.00
2022-08-10T16:30:02.394Z,1.17
2022-08-10T16:32:30.852Z,0.95
2022-08-10T16:34:58.870Z,1.15
2022-08-10T16:37:57.425Z,0.80
2022-08-10T16:40:21.480Z,1.08
2022-08-10T16:42:49.735Z,1.10
2022-08-10T16:45:21.777Z,1.00
2022-08-10T16:47:50.363Z,0.80
2022-08-10T16:50:18.707Z,0.93
2022-08-10T16:52:46.290Z,0.90
2022-08-10T16:55:24.374Z,1.10
2022-08-10T16:58:05.786Z,1.00
2022-08-10T17:00:33.630Z,0.88
2022-08-10T17:03:22.284Z,0.82
2022-08-10T17:06:11.347Z,1.00
2022-08-10T17:08:48.261Z,1.10
2022-08-10T17:11:16.725Z,1.30
2022-08-10T17:13:44.110Z,1.30
2022-08-10T17:16:12.510Z,1.30
2022-08-10T17:18:41.842Z,1.20
2022-08-10T17:21:19.014Z,1.10
2022-08-10T17:23:47.680Z,1.23
2022-08-10T17:26:16.936Z,1.08
2022-08-10T17:28:52.086Z,1.35
2022-08-10T17:31:53.562Z,1.23
2022-08-10T17:34:14.559Z,1.50
2022-08-10T17:36:43.093Z,1.42
2022-08-10T17:39:12.690Z,1.60
2022-08-10T17:41:42.019Z,3.10
2022-08-10T17:44:10.172Z,2.90
2022-08-10T17:46:38.830Z,4.20
2022-08-10T17:49:07.960Z,4.63
2022-08-10T17:51:35.428Z,4.50
2022-08-10T17:54:06.914Z,3.95
2022-08-10T17:56:35.310Z,4.47
2022-08-10T17:59:10.096Z,4.53
2022-08-10T18:02:01.293Z,4.03
2022-08-10T18:04:34.384Z,4.00
2022-08-10T18:07:09.568Z,3.00
2022-08-10T18:09:40.535Z,2.53
2022-08-10T18:12:18.203Z,1.55
2022-08-10T18:14:47.601Z,1.52
2022-08-10T18:17:17.937Z,1.85
2022-08-10T18:19:46.857Z,1.42
2022-08-10T18:22:14.544Z,1.40
2022-08-10T18:24:42.874Z,1.50
2022-08-10T18:27:10.502Z,1.50
2022-08-10T18:29:39.879Z,1.52
2022-08-10T18:32:08.165Z,1.35
2022-08-10T18:34:36.567Z,1.50
2022-08-10T18:37:06.124Z,1.48
2022-08-10T18:39:36.045Z,1.65
2022-08-10T18:42:22.209Z,1.35
2022-08-10T18:44:53.840Z,2.90
2022-08-10T18:47:33.630Z,3.40
2022-08-10T18:50:05.719Z,2.78
2022-08-10T18:52:34.748Z,2.92
2022-08-10T18:55:14.307Z,2.08
2022-08-10T18:57:47.245Z,2.13
2022-08-10T19:00:14.706Z,2.00
2022-08-10T19:02:51.008Z,1.67
2022-08-10T19:05:30.230Z,1.58
2022-08-10T19:08:30.334Z,1.77
2022-08-10T19:11:01.326Z,1.70
2022-08-10T19:13:48.752Z,1.60
2022-08-10T19:16:24.009Z,1.45
2022-08-10T19:19:01.281Z,1.90
2022-08-10T19:21:31.625Z,2.13
2022-08-10T19:24:05.639Z,1.88
2022-08-10T19:26:44.861Z,2.47
2022-08-10T19:30:00.856Z,2.70
2022-08-10T19:32:12.607Z,2.20
2022-08-10T19:34:47.109Z,2.53
2022-08-10T19:37:17.543Z,3.20
2022-08-10T19:40:03.017Z,3.03
2022-08-10T19:42:40.079Z,2.67
2022-08-10T19:46:01.355Z,2.10
2022-08-10T19:48:20.919Z,2.25
2022-08-10T19:50:52.649Z,2.20
2022-08-10T19:53:19.924Z,2.03
2022-08-10T19:56:18.571Z,2.20
2022-08-10T19:59:08.735Z,3.05
2022-08-10T20:01:55.853Z,3.53
2022-08-10T20:04:31.728Z,4.55
2022-08-10T20:07:09.613Z,4.10
2022-08-10T20:09:43.872Z,4.60
2022-08-10T20:12:34.888Z,4.38
2022-08-10T20:15:10.512Z,4.47
2022-08-10T20:17:55.768Z,4.72
2022-08-10T20:20:35.651Z,4.82
2022-08-10T20:23:15.953Z,5.20
2022-08-10T20:26:03.604Z,4.90
2022-08-10T20:28:32.621Z,4.97
2022-08-10T20:31:06.996Z,4.60
2022-08-10T20:33:41.767Z,3.92
2022-08-10T20:36:25.144Z,4.38
2022-08-10T20:38:55.231Z,3.35
2022-08-10T20:41:43.801Z,3.55
2022-08-10T20:44:19.707Z,3.60
2022-08-10T20:46:54.998Z,3.88
2022-08-10T20:49:38.613Z,3.75
2022-08-10T20:52:07.294Z,3.90
2022-08-10T20:54:47.960Z,3.80
2022-08-10T20:58:04.053Z,4.07
2022-08-10T21:00:13.800Z,3.33
2022-08-10T21:02:41.162Z,3.25
2022-08-10T21:05:24.362Z,4.10
2022-08-10T21:08:02.377Z,2.95
2022-08-10T21:10:33.302Z,3.00
2022-08-10T21:13:09.760Z,3.50
2022-08-10T21:15:43.219Z,3.00
2022-08-10T21:18:32.002Z,3.22
2022-08-10T21:21:02.099Z,3.47
2022-08-10T21:23:38.049Z,3.40
2022-08-10T21:26:25.093Z,3.35
2022-08-10T21:29:20.398Z,3.35
2022-08-10T21:31:55.412Z,3.78
2022-08-10T21:34:32.638Z,3.90
2022-08-10T21:37:03.545Z,4.00
2022-08-10T21:39:50.514Z,4.28
2022-08-10T21:42:56.342Z,4.55
2022-08-10T21:45:59.402Z,4.07
2022-08-10T21:48:57.126Z,4.38
2022-08-10T21:52:04.044Z,5.07
2022-08-10T21:55:06.881Z,5.00
2022-08-10T21:58:09.889Z,4.82
2022-08-10T22:00:58.394Z,4.93
2022-08-10T22:03:44.708Z,5.43
2022-08-10T22:06:32.020Z,4.80
2022-08-10T22:09:42.535Z,4.90
2022-08-10T22:12:32.231Z,4.53
2022-08-10T22:15:24.188Z,4.25
2022-08-10T22:18:32.005Z,4.78
2022-08-10T22:21:45.155Z,4.57
2022-08-10T22:25:00.660Z,4.00
2022-08-10T22:27:52.856Z,4.97
2022-08-10T22:30:39.610Z,5.13
2022-08-10T22:33:40.716Z,4.93
2022-08-10T22:36:26.760Z,4.40
2022-08-10T22:40:11.900Z,4.45
2022-08-10T22:42:59.002Z,4.68
2022-08-10T22:45:49.149Z,4.53
2022-08-10T22:48:35.433Z,4.43
2022-08-10T22:51:07.380Z,4.78
2022-08-10T22:54:11.235Z,4.63
2022-08-10T22:57:17.160Z,5.00
2022-08-10T22:59:44.592Z,5.05
2022-08-10T23:02:13.199Z,4.90
2022-08-10T23:04:59.403Z,4.78
2022-08-10T23:07:28.776Z,5.30
2022-08-10T23:10:03.817Z,5.20
2022-08-10T23:12:42.300Z,4.72
2022-08-10T23:15:36.620Z,5.10
2022-08-10T23:18:23.945Z,5.15
2022-08-10T23:20:51.818Z,4.95
2022-08-10T23:23:23.525Z,5.18
2022-08-10T23:25:57.463Z,5.25
2022-08-10T23:28:38.685Z,5.03
2022-08-10T23:33:37.415Z,4.90
2022-08-10T23:36:33.712Z,4.22
2022-08-10T23:39:23.798Z,4.10
2022-08-10T23:41:42.143Z,3.85
2022-08-10T23:44:14.719Z,4.07
2022-08-10T23:46:48.835Z,3.60
2022-08-10T23:49:16.723Z,3.05
2022-08-10T23:51:55.113Z,3.42
2022-08-10T23:54:24.528Z,3.17
2022-08-10T23:56:53.031Z,3.72
2022-08-10T23:59:22.162Z,2.95
